Corky — WDC3366 — position and weather

sailwx.info

Track history (hours):
 
Tides and Currents Weather Stations Pressure Air Temp Water Temp Dewpoint Dewpoint Depression Visibility Wind Speed Wind Dir Waves Ship Positions

Corky

Owner: Gulf South Marine Transportation, Inc., New Orleans, LA. More information available from US FCC via Universal Licensing System and Coast Guard Vessel Documentation Center.

Last reported at 2014-Oct-19 12:32 UTC. Time now 2014-Oct-20 21:16 UTC.
Position N 29°32' W 090°53'.

Length 18 m; draft 3.3 m.

Type: Tow > 200 m length. MMSI: 367006780.

Date/timePositionNaut miles runAvg speedWind from/ knotsBaromVisibWave heightAir tempDewpointWater temp
2014-Oct-19 12:32N 29°32' W 090°53'4 4.3
2014-Oct-19 11:33N 29°34' W 090°57'4 4.1
2014-Oct-19 10:34N 29°37' W 090°60'4 4.0
2014-Oct-19 09:34N 29°38' W 091°05'3 3.0
2014-Oct-19 08:34N 29°39' W 091°08'3 3.1
2014-Oct-19 07:33N 29°41' W 091°10'2 2.0
2014-Oct-19 06:33N 29°41' W 091°13'3 3.1
2014-Oct-19 05:33N 29°39' W 091°16'3 3.2
2014-Oct-19 04:33N 29°38' W 091°19'3 3.1
2014-Oct-19 03:33N 29°39' W 091°23'4 3.2
2014-Oct-19 02:10N 29°40' W 091°27'0 0.4
2014-Oct-19 01:27N 29°41' W 091°28'3 2.6
2014-Oct-19 00:26N 29°42' W 091°30'  
2014-Oct-16 20:14N 29°27' W 094°51'4 6.1
2014-Oct-16 19:32N 29°31' W 094°53'6 6.2
2014-Oct-16 18:33N 29°36' W 094°57'6 6.2
2014-Oct-16 17:33N 29°42' W 094°59'5 4.9
2014-Oct-16 16:33N 29°45' W 095°04'3 2.3
2014-Oct-16 15:22N 29°46' W 095°06'0 0.2
2014-Oct-16 13:27N 29°47' W 095°06'0 0.0
2014-Oct-16 12:33N 29°47' W 095°06'0 0.1
2014-Oct-16 11:33N 29°47' W 095°06'1 1.5
2014-Oct-16 10:33N 29°46' W 095°05'7 6.7
2014-Oct-16 09:34N 29°41' W 094°59'7 7.3
2014-Oct-16 08:34N 29°35' W 094°56'14 3.2
2014-Oct-16 04:06N 29°26' W 094°43'2 0.6
2014-Oct-16 01:22N 29°27' W 094°42'21 2.1
2014-Oct-15 15:19N 29°37' W 094°21'3 3.6
2014-Oct-15 14:31N 29°38' W 094°18'  
2014-Oct-13 05:25N 29°45' W 091°35'3 3.2
2014-Oct-13 04:22N 29°43' W 091°32'4 3.5
2014-Oct-13 03:21N 29°41' W 091°29'3 4.1
2014-Oct-13 02:33N 29°39' W 091°25'3 3.0
2014-Oct-13 01:33N 29°39' W 091°22'2 2.1
2014-Oct-13 00:33N 29°38' W 091°20'4 4.2
2014-Oct-12 23:33N 29°39' W 091°15'4 4.2
2014-Oct-12 22:33N 29°41' W 091°11'2 2.2
2014-Oct-12 21:33N 29°40' W 091°08'3 3.3
2014-Oct-12 20:33N 29°38' W 091°05'4 4.1
2014-Oct-12 19:32N 29°37' W 091°01'4 3.8
2014-Oct-12 18:31N 29°35' W 090°57'6 4.1
2014-Oct-12 17:04N 29°32' W 090°51'38 1.1
2014-Oct-11 07:24N 29°57' W 090°18'0 0.4
2014-Oct-11 06:24N 29°58' W 090°18'4 4.5
2014-Oct-11 05:31N 29°56' W 090°22'1 0.7
2014-Oct-11 04:30N 29°57' W 090°22'1 1.1
2014-Oct-11 03:33N 29°56' W 090°21'4 1.2
2014-Oct-11 00:33N 29°58' W 090°17'3 1.7
2014-Oct-10 22:27N 29°56' W 090°21'  
Track history (hours):
 
Tides and Currents Weather Stations Pressure Air Temp Water Temp Dewpoint Dewpoint Depression Visibility Wind Speed Wind Dir Waves Ship Positions

Corky

Owner: Gulf South Marine Transportation, Inc., New Orleans, LA. More information available from US FCC via Universal Licensing System and Coast Guard Vessel Documentation Center.

Last reported at 2014-Oct-19 12:32 UTC. Time now 2014-Oct-20 21:16 UTC.
Position N 29°32' W 090°53'.

Length 18 m; draft 3.3 m.

Type: Tow > 200 m length. MMSI: 367006780.

Date/timePositionNaut miles runAvg speedWind from/ knotsBaromVisibWave heightAir tempDewpointWater temp
2014-Oct-19 12:32N 29°32' W 090°53'4 4.3
2014-Oct-19 11:33N 29°34' W 090°57'4 4.1
2014-Oct-19 10:34N 29°37' W 090°60'4 4.0
2014-Oct-19 09:34N 29°38' W 091°05'3 3.0
2014-Oct-19 08:34N 29°39' W 091°08'3 3.1
2014-Oct-19 07:33N 29°41' W 091°10'2 2.0
2014-Oct-19 06:33N 29°41' W 091°13'3 3.1
2014-Oct-19 05:33N 29°39' W 091°16'3 3.2
2014-Oct-19 04:33N 29°38' W 091°19'3 3.1
2014-Oct-19 03:33N 29°39' W 091°23'4 3.2
2014-Oct-19 02:10N 29°40' W 091°27'0 0.4
2014-Oct-19 01:27N 29°41' W 091°28'3 2.6
2014-Oct-19 00:26N 29°42' W 091°30'  
2014-Oct-16 20:14N 29°27' W 094°51'4 6.1
2014-Oct-16 19:32N 29°31' W 094°53'6 6.2
2014-Oct-16 18:33N 29°36' W 094°57'6 6.2
2014-Oct-16 17:33N 29°42' W 094°59'5 4.9
2014-Oct-16 16:33N 29°45' W 095°04'3 2.3
2014-Oct-16 15:22N 29°46' W 095°06'0 0.2
2014-Oct-16 13:27N 29°47' W 095°06'0 0.0
2014-Oct-16 12:33N 29°47' W 095°06'0 0.1
2014-Oct-16 11:33N 29°47' W 095°06'1 1.5
2014-Oct-16 10:33N 29°46' W 095°05'7 6.7
2014-Oct-16 09:34N 29°41' W 094°59'7 7.3
2014-Oct-16 08:34N 29°35' W 094°56'14 3.2
2014-Oct-16 04:06N 29°26' W 094°43'2 0.6
2014-Oct-16 01:22N 29°27' W 094°42'21 2.1
2014-Oct-15 15:19N 29°37' W 094°21'3 3.6
2014-Oct-15 14:31N 29°38' W 094°18'  
2014-Oct-13 05:25N 29°45' W 091°35'3 3.2
2014-Oct-13 04:22N 29°43' W 091°32'4 3.5
2014-Oct-13 03:21N 29°41' W 091°29'3 4.1
2014-Oct-13 02:33N 29°39' W 091°25'3 3.0
2014-Oct-13 01:33N 29°39' W 091°22'2 2.1
2014-Oct-13 00:33N 29°38' W 091°20'4 4.2
2014-Oct-12 23:33N 29°39' W 091°15'4 4.2
2014-Oct-12 22:33N 29°41' W 091°11'2 2.2
2014-Oct-12 21:33N 29°40' W 091°08'3 3.3
2014-Oct-12 20:33N 29°38' W 091°05'4 4.1
2014-Oct-12 19:32N 29°37' W 091°01'4 3.8
2014-Oct-12 18:31N 29°35' W 090°57'6 4.1
2014-Oct-12 17:04N 29°32' W 090°51'38 1.1
2014-Oct-11 07:24N 29°57' W 090°18'0 0.4
2014-Oct-11 06:24N 29°58' W 090°18'4 4.5
2014-Oct-11 05:31N 29°56' W 090°22'1 0.7
2014-Oct-11 04:30N 29°57' W 090°22'1 1.1
2014-Oct-11 03:33N 29°56' W 090°21'4 1.2
2014-Oct-11 00:33N 29°58' W 090°17'3 1.7
2014-Oct-10 22:27N 29°56' W 090°21'  

Dump ship's entire track history